الصفحة الرئيسية
METAR-TAF:

METAR-TAF

مطار :

Imperatriz, مارانهاو, البرازيل

دائرة عرض: 05-32S, خط طول: 047-30W, ارتفاع: 123 متر

مراقبة الطقس الحالي

تاريخ ووقت الإصدار 2ساعات و 20 دقيقة قبل الساعة 20:00UTC
ريح 9 عقدة من الشرق/الجنوب الشرقي
درجة الحرارة 34°درجة مئوية
الرطوبة 53%
ضغط 1006 hPa
الرؤية 10 كم أو أكثر
غيوم مفككة على ارتفاع 2500 قدم

METAR: SBIZ 152000Z 12009KT 9999 BKN025 34/23 Q1006

زمن: 19:20 (22:20 UTC)

توقعات

تاريخ ووقت الإصدار 6ساعات و 20 دقيقة قبل الساعة 16:00UTC
التوقعات صالحة من15 الساعة 18 UTC إلى 16 الساعة 06 UTC
ريح 5 عقدة من الشمال/الشمال الشرقي
الرؤية 10 كم أو أكثر
غيوم مفككة على ارتفاع 2500 قدم
غيوم قليلة على ارتفاع 3000 قدم, مزن ركامية عمودية.
أصبح
من 15 الساعة 22 UTC إلى 15 الساعة 24 UTC
ريح عقدة من الشمال
الرؤية 10 كم أو أكثر
الغيوم لا تقل 1500 م ولا وجود لمزنة ركامية السحاب الأسود

TAF: SBIZ 151600Z 1518/1606 02005KT 9999 BKN025 FEW030TCU TX34/1518Z TN25/1606Z BECMG 1522/1524 00000KT CAVOK RMK PEC

أرصاد الطقس والتوقعات من أكثر من 4000 مطار (تقارير الطقس للمطار METAR والتنبؤ بالطقس بالمطارTAF).

المحطات المتاحة هي النقط الصفراء والحمراء على الخريطة.

حرك المؤشر فوق النقطة لمعرفة اسم المحطة.

ثم انقر لمعرفة أرصاد وتوقعات الطقس.

لتغيير الخارطة: اضغط على الأزرار الخضراء مع رمز الصليب الأسود للتكبير. على الزر الأخضر مع شرطة للتصغير، أو على الأسهم الخضراء للخرائط المجاورة.


METAR-TAF: